createdAt,value
2019-06-07T00:01:50.091Z,4.10
2019-06-07T00:06:54.970Z,4.03
2019-06-07T00:11:59.880Z,3.90
2019-06-07T00:17:04.766Z,3.90
2019-06-07T00:22:18.295Z,3.87
2019-06-07T00:27:18.280Z,3.90
2019-06-07T00:32:22.720Z,3.40
2019-06-07T00:37:27.570Z,2.83
2019-06-07T00:42:32.513Z,2.30
2019-06-07T00:47:37.401Z,2.30
2019-06-07T00:53:13.168Z,2.57
2019-06-07T00:57:49.038Z,2.87
2019-06-07T01:02:53.929Z,3.33
2019-06-07T01:07:58.880Z,3.33
2019-06-07T01:13:04.762Z,4.10
2019-06-07T01:18:36.043Z,2.63
2019-06-07T01:23:55.215Z,2.30
2019-06-07T01:28:26.355Z,1.70
2019-06-07T01:33:49.834Z,2.23
2019-06-07T01:38:36.028Z,1.90
2019-06-07T01:43:40.925Z,2.20
2019-06-07T01:48:49.448Z,2.17
2019-06-07T01:54:41.269Z,1.67
2019-06-07T01:58:58.957Z,2.00
2019-06-07T02:04:05.079Z,2.17
2019-06-07T02:09:10.166Z,2.57
2019-06-07T02:14:15.111Z,2.40
2019-06-07T02:19:19.937Z,2.55
2019-06-07T02:24:28.939Z,2.97
2019-06-07T02:29:33.723Z,2.87
2019-06-07T02:34:39.868Z,2.90
2019-06-07T02:39:45.006Z,3.10
2019-06-07T02:44:49.883Z,2.93
2019-06-07T02:49:54.807Z,2.40
2019-06-07T02:54:59.664Z,2.47
2019-06-07T03:00:40.665Z,2.45
2019-06-07T03:05:14.370Z,2.77
2019-06-07T03:10:19.310Z,2.45
2019-06-07T03:15:37.436Z,2.83
2019-06-07T03:20:35.110Z,2.47
2019-06-07T03:25:42.756Z,2.50
2019-06-07T03:31:00.796Z,2.67
2019-06-07T03:35:54.165Z,3.50
2019-06-07T03:40:59.006Z,2.80
2019-06-07T03:46:04.703Z,2.90
2019-06-07T03:51:23.979Z,3.30
2019-06-07T03:56:16.321Z,3.60
2019-06-07T04:01:21.346Z,2.90
2019-06-07T04:06:26.222Z,2.30
2019-06-07T04:11:32.516Z,2.53
2019-06-07T04:16:43.574Z,3.13
2019-06-07T04:21:44.048Z,2.97
2019-06-07T04:26:48.974Z,2.87
2019-06-07T04:31:53.868Z,3.30
2019-06-07T04:36:59.726Z,3.97
2019-06-07T04:42:04.789Z,3.50
2019-06-07T04:47:12.156Z,3.70
2019-06-07T04:52:17.181Z,3.77
2019-06-07T04:57:22.109Z,4.00
2019-06-07T05:02:27.039Z,3.60
2019-06-07T05:07:33.021Z,4.20
2019-06-07T05:12:43.053Z,4.40
2019-06-07T05:17:45.278Z,4.13
2019-06-07T05:22:50.332Z,4.80
2019-06-07T05:27:55.272Z,3.70
2019-06-07T05:33:00.223Z,2.80
2019-06-07T05:38:05.628Z,3.63
2019-06-07T05:43:22.340Z,3.00
2019-06-07T05:48:27.280Z,3.40
2019-06-07T05:53:32.868Z,3.03
2019-06-07T05:58:41.445Z,3.30
2019-06-07T06:03:48.097Z,2.77
2019-06-07T06:08:51.015Z,2.90
2019-06-07T06:14:06.599Z,2.97
2019-06-07T06:19:02.475Z,3.10
2019-06-07T06:24:07.380Z,2.70
2019-06-07T06:29:12.318Z,2.77
2019-06-07T06:34:17.147Z,2.87
2019-06-07T06:39:21.997Z,3.10
2019-06-07T06:44:26.945Z,3.20
2019-06-07T06:49:31.778Z,3.00
